createdAt,value
2023-02-22T00:00:50.072Z,5.67
2023-02-22T00:03:24.925Z,6.67
2023-02-22T00:05:55.202Z,5.73
2023-02-22T00:08:24.587Z,5.10
2023-02-22T00:10:53.509Z,4.17
2023-02-22T00:13:22.785Z,4.30
2023-02-22T00:15:50.466Z,5.23
2023-02-22T00:18:20.490Z,5.93
2023-02-22T00:20:48.227Z,5.70
2023-02-22T00:23:20.065Z,7.27
2023-02-22T00:25:49.187Z,5.63
2023-02-22T00:28:19.442Z,5.93
2023-02-22T00:30:48.227Z,5.53
2023-02-22T00:33:17.380Z,4.60
2023-02-22T00:35:46.921Z,4.93
2023-02-22T00:38:16.306Z,5.13
2023-02-22T00:40:45.454Z,4.47
2023-02-22T00:43:13.872Z,4.60
2023-02-22T00:45:43.874Z,5.57
2023-02-22T00:48:12.038Z,5.07
2023-02-22T00:50:40.265Z,6.80
2023-02-22T00:53:10.334Z,5.17
2023-02-22T00:55:39.421Z,5.30
2023-02-22T00:58:08.501Z,4.83
2023-02-22T01:00:38.656Z,6.57
2023-02-22T01:03:09.273Z,5.20
2023-02-22T01:05:38.729Z,5.73
2023-02-22T01:08:07.834Z,4.37
2023-02-22T01:10:36.455Z,6.07
2023-02-22T01:13:08.785Z,5.17
2023-02-22T01:15:39.310Z,4.37
2023-02-22T01:18:08.977Z,3.47
2023-02-22T01:20:37.247Z,4.30
2023-02-22T01:23:07.763Z,4.70
2023-02-22T01:25:37.146Z,4.23
2023-02-22T01:28:06.847Z,3.93
2023-02-22T01:30:37.187Z,5.60
2023-02-22T01:33:08.594Z,3.47
2023-02-22T01:35:38.501Z,3.33
2023-02-22T01:38:08.481Z,3.73
2023-02-22T01:40:39.364Z,3.20
2023-02-22T01:43:17.330Z,3.37
2023-02-22T01:46:02.228Z,3.53
2023-02-22T01:48:40.283Z,3.67
2023-02-22T01:51:14.147Z,3.30
2023-02-22T01:53:49.029Z,3.77
2023-02-22T01:56:18.799Z,3.97
2023-02-22T01:58:51.887Z,4.90
2023-02-22T02:01:23.346Z,4.60
2023-02-22T02:03:57.984Z,4.83
2023-02-22T02:06:27.168Z,4.43
2023-02-22T02:09:00.899Z,5.27
2023-02-22T02:11:30.714Z,4.23
2023-02-22T02:14:00.832Z,5.37
2023-02-22T02:16:38.958Z,3.87
2023-02-22T02:19:16.541Z,5.30
2023-02-22T02:22:10.257Z,3.27
2023-02-22T02:25:08.228Z,3.17
2023-02-22T02:27:50.514Z,3.10
2023-02-22T02:30:59.609Z,3.37
2023-02-22T02:33:34.046Z,2.77
2023-02-22T02:36:08.868Z,3.07
2023-02-22T02:38:45.850Z,4.07
2023-02-22T02:41:19.657Z,3.17
2023-02-22T02:43:56.249Z,4.17
2023-02-22T02:46:31.033Z,2.97
2023-02-22T02:49:05.220Z,3.40
2023-02-22T02:51:37.873Z,3.30
2023-02-22T02:54:07.435Z,5.03
2023-02-22T02:56:35.572Z,3.13
2023-02-22T02:59:03.200Z,3.97
2023-02-22T03:01:46.396Z,4.73
2023-02-22T03:04:38.664Z,4.20
2023-02-22T03:07:26.875Z,3.20
2023-02-22T03:10:06.710Z,3.67
2023-02-22T03:12:44.939Z,3.63
2023-02-22T03:15:30.261Z,3.50
2023-02-22T03:18:06.819Z,4.27
2023-02-22T03:20:45.006Z,5.57
2023-02-22T03:23:20.976Z,3.23
2023-02-22T03:25:54.549Z,3.33
2023-02-22T03:28:27.280Z,3.67
2023-02-22T03:31:01.547Z,4.27
2023-02-22T03:33:36.325Z,4.10
2023-02-22T03:36:11.373Z,3.77
2023-02-22T03:38:41.249Z,4.47
2023-02-22T03:41:15.870Z,4.50
2023-02-22T03:43:49.040Z,4.67
2023-02-22T03:46:19.235Z,4.00
2023-02-22T03:48:54.068Z,3.77
2023-02-22T03:51:24.592Z,4.53
2023-02-22T03:53:57.724Z,3.73
2023-02-22T03:56:35.740Z,5.67
2023-02-22T03:59:05.942Z,4.37
2023-02-22T04:01:34.569Z,4.93
2023-02-22T04:04:02.722Z,3.33
2023-02-22T04:06:32.444Z,3.10
2023-02-22T04:09:02.021Z,3.33
2023-02-22T04:11:30.848Z,4.03
2023-02-22T04:13:58.494Z,3.13
2023-02-22T04:16:26.340Z,3.10
2023-02-22T04:18:54.452Z,3.53
2023-02-22T04:21:22.048Z,3.47
2023-02-22T04:23:52.518Z,2.90
2023-02-22T04:26:21.156Z,3.33
2023-02-22T04:28:54.344Z,2.50
2023-02-22T04:31:24.964Z,2.47
2023-02-22T04:33:55.788Z,3.20
2023-02-22T04:36:31.788Z,2.73
2023-02-22T04:39:02.026Z,2.23
2023-02-22T04:41:31.493Z,3.33
2023-02-22T04:43:59.256Z,2.30
2023-02-22T04:46:28.232Z,2.10
2023-02-22T04:48:57.995Z,3.27
2023-02-22T04:51:28.819Z,3.47
2023-02-22T04:54:10.040Z,2.77
2023-02-22T04:56:41.790Z,3.93
2023-02-22T04:59:10.878Z,3.57
2023-02-22T05:01:40.247Z,3.47
2023-02-22T05:04:09.044Z,4.23
2023-02-22T05:06:36.609Z,2.97
2023-02-22T05:09:04.817Z,4.43
2023-02-22T05:11:33.747Z,3.53
2023-02-22T05:14:02.675Z,3.00
2023-02-22T05:16:30.295Z,4.27
2023-02-22T05:18:58.152Z,3.87
2023-02-22T05:21:25.763Z,3.40
2023-02-22T05:23:54.256Z,4.20
2023-02-22T05:26:21.835Z,3.87
2023-02-22T05:28:50.980Z,4.50
2023-02-22T05:31:19.012Z,3.97
2023-02-22T05:33:47.530Z,3.40
2023-02-22T05:36:16.755Z,4.13
2023-02-22T05:38:45.123Z,3.70
2023-02-22T05:41:14.470Z,3.37
2023-02-22T05:43:43.280Z,4.00
2023-02-22T05:46:12.250Z,4.07
2023-02-22T05:48:40.594Z,3.00
2023-02-22T05:51:09.658Z,4.00
2023-02-22T05:53:38.004Z,3.77
2023-02-22T05:56:06.969Z,3.43
2023-02-22T05:58:35.069Z,3.73
2023-02-22T06:01:03.431Z,3.83
2023-02-22T06:03:32.848Z,3.97
2023-02-22T06:06:00.499Z,5.23
2023-02-22T06:08:28.382Z,3.40
2023-02-22T06:10:56.519Z,4.90
2023-02-22T06:13:24.405Z,4.03
2023-02-22T06:15:51.977Z,4.20
2023-02-22T06:18:20.472Z,3.83
2023-02-22T06:20:49.479Z,3.50
2023-02-22T06:23:17.234Z,3.53
2023-02-22T06:25:44.896Z,3.37
2023-02-22T06:28:12.470Z,4.10
2023-02-22T06:30:42.976Z,4.33
2023-02-22T06:33:11.476Z,3.50
2023-02-22T06:35:39.079Z,3.07
2023-02-22T06:38:08.899Z,4.00
2023-02-22T06:40:37.056Z,3.23
2023-02-22T06:43:05.224Z,5.03
2023-02-22T06:45:33.476Z,5.00
2023-02-22T06:48:01.049Z,3.80
2023-02-22T06:50:31.593Z,3.37
2023-02-22T06:52:59.738Z,3.63
2023-02-22T06:55:30.698Z,3.37
2023-02-22T06:57:58.790Z,3.50
2023-02-22T07:00:28.341Z,2.93
2023-02-22T07:02:56.967Z,3.43
2023-02-22T07:05:26.643Z,2.33
2023-02-22T07:07:56.403Z,2.97
2023-02-22T07:10:26.248Z,3.10
2023-02-22T07:12:55.441Z,3.60
2023-02-22T07:15:28.202Z,3.00
2023-02-22T07:17:56.436Z,3.20
2023-02-22T07:20:25.420Z,2.70
2023-02-22T07:22:53.712Z,3.23
2023-02-22T07:25:23.442Z,3.20
2023-02-22T07:27:52.404Z,2.97
2023-02-22T07:30:25.831Z,3.77
2023-02-22T07:32:55.324Z,3.10
2023-02-22T07:35:25.504Z,3.33
2023-02-22T07:37:55.733Z,2.53
2023-02-22T07:40:25.453Z,3.40
2023-02-22T07:42:55.400Z,4.10
2023-02-22T07:45:25.977Z,4.03
2023-02-22T07:47:53.596Z,3.43
2023-02-22T07:50:23.449Z,3.17
2023-02-22T07:52:53.021Z,2.77
2023-02-22T07:55:23.213Z,4.27
2023-02-22T07:57:53.328Z,3.23
2023-02-22T08:00:26.696Z,3.83
2023-02-22T08:02:54.737Z,3.23
2023-02-22T08:05:24.688Z,2.77
2023-02-22T08:07:52.390Z,2.40
2023-02-22T08:10:22.301Z,2.50
2023-02-22T08:12:50.398Z,2.30
2023-02-22T08:15:20.635Z,2.00
2023-02-22T08:17:49.534Z,2.47
2023-02-22T08:20:17.825Z,2.10
2023-02-22T08:22:45.761Z,1.90
2023-02-22T08:25:15.489Z,2.33
2023-02-22T08:27:43.737Z,4.27
2023-02-22T08:30:17.071Z,1.43
2023-02-22T08:32:46.354Z,1.43
2023-02-22T08:35:15.704Z,1.03
2023-02-22T08:37:44.414Z,1.43
2023-02-22T08:40:14.871Z,1.30
2023-02-22T08:42:42.672Z,1.40
2023-02-22T08:45:12.142Z,1.90
2023-02-22T08:47:40.159Z,2.27
2023-02-22T08:50:08.882Z,1.57
2023-02-22T08:52:38.240Z,2.20
2023-02-22T08:55:07.000Z,1.70
2023-02-22T08:57:35.182Z,2.27
2023-02-22T09:00:03.078Z,1.37
2023-02-22T09:02:30.663Z,1.67
2023-02-22T09:04:58.242Z,1.30
2023-02-22T09:07:25.817Z,1.83
2023-02-22T09:09:54.727Z,0.90
2023-02-22T09:12:22.319Z,1.20
2023-02-22T09:14:50.052Z,1.30
2023-02-22T09:17:18.033Z,1.20
2023-02-22T09:19:45.734Z,1.60
2023-02-22T09:22:13.493Z,2.67
2023-02-22T09:24:43.023Z,1.90
2023-02-22T09:27:12.202Z,1.37
2023-02-22T09:29:40.420Z,1.77
2023-02-22T09:32:08.319Z,1.40
2023-02-22T09:34:35.956Z,1.63
2023-02-22T09:37:04.957Z,1.90
2023-02-22T09:39:37.510Z,1.30
2023-02-22T09:42:12.401Z,1.80
2023-02-22T09:44:48.110Z,1.33
2023-02-22T09:47:19.902Z,3.67
2023-02-22T09:49:57.786Z,3.73
2023-02-22T09:52:31.697Z,2.13
2023-02-22T09:55:09.869Z,3.03
2023-02-22T09:57:42.885Z,2.33
2023-02-22T10:00:20.823Z,2.53
2023-02-22T10:02:57.674Z,2.10
2023-02-22T10:05:28.421Z,2.00
2023-02-22T10:08:06.217Z,1.57
2023-02-22T10:10:39.249Z,1.90
2023-02-22T10:13:21.188Z,2.30
2023-02-22T10:15:58.282Z,1.57
2023-02-22T10:18:55.326Z,1.77
2023-02-22T10:21:38.814Z,1.70
2023-02-22T10:24:18.902Z,1.90
2023-02-22T10:26:47.064Z,1.63
2023-02-22T10:29:22.095Z,2.80
2023-02-22T10:31:58.476Z,2.47
2023-02-22T10:34:30.666Z,1.30
2023-02-22T10:37:05.572Z,1.20
2023-02-22T10:39:35.217Z,1.57
2023-02-22T10:42:06.806Z,1.20
2023-02-22T10:44:34.668Z,1.57
2023-02-22T10:47:07.575Z,1.10
2023-02-22T10:49:39.363Z,0.90
2023-02-22T10:52:15.668Z,2.17
2023-02-22T10:54:47.457Z,2.37
2023-02-22T10:57:15.971Z,0.70
2023-02-22T10:59:43.565Z,1.70
2023-02-22T11:02:20.614Z,1.40
2023-02-22T11:04:50.569Z,0.90
2023-02-22T11:07:23.191Z,1.63
2023-02-22T11:09:54.073Z,1.67
2023-02-22T11:12:28.912Z,1.20
2023-02-22T11:14:56.953Z,2.27
2023-02-22T11:17:31.929Z,1.33
2023-02-22T11:20:01.000Z,1.10
2023-02-22T11:22:32.471Z,1.37
2023-02-22T11:25:03.251Z,1.47
2023-02-22T11:27:38.206Z,1.50
2023-02-22T11:30:22.299Z,1.03
2023-02-22T11:32:57.003Z,1.10
2023-02-22T11:35:35.371Z,1.40
2023-02-22T11:38:21.015Z,1.10
2023-02-22T11:41:04.882Z,1.40
2023-02-22T11:43:33.103Z,0.87
2023-02-22T11:46:04.674Z,1.20
2023-02-22T11:48:36.740Z,0.53
2023-02-22T11:51:16.114Z,0.70
2023-02-22T11:54:07.287Z,0.80
2023-02-22T11:56:40.493Z,0.57
2023-02-22T11:59:22.109Z,1.03
2023-02-22T12:01:54.301Z,1.77
2023-02-22T12:04:44.290Z,1.77
2023-02-22T12:07:27.001Z,2.37
2023-02-22T12:10:06.465Z,3.23
2023-02-22T12:12:41.594Z,4.30
2023-02-22T12:15:15.430Z,4.07
2023-02-22T12:18:00.702Z,3.77
2023-02-22T12:20:37.176Z,5.33
2023-02-22T12:23:15.077Z,5.93
2023-02-22T12:25:55.132Z,5.00
2023-02-22T12:28:27.035Z,4.67
2023-02-22T12:31:06.136Z,5.70
2023-02-22T12:33:46.472Z,5.50
2023-02-22T12:36:20.800Z,4.87
2023-02-22T12:38:55.318Z,5.40
2023-02-22T12:41:29.748Z,4.37
2023-02-22T12:44:03.336Z,5.33
2023-02-22T12:46:35.863Z,4.17
2023-02-22T12:49:15.271Z,6.50
2023-02-22T12:51:49.846Z,4.80
2023-02-22T12:54:23.118Z,4.73
2023-02-22T12:56:56.591Z,5.17
2023-02-22T12:59:30.393Z,6.13
2023-02-22T13:02:05.010Z,5.37
2023-02-22T13:04:34.673Z,4.90
2023-02-22T13:07:17.067Z,5.37
2023-02-22T13:10:20.363Z,3.90
2023-02-22T13:12:54.753Z,6.17
2023-02-22T13:15:29.613Z,5.80
2023-02-22T13:18:07.252Z,5.20
2023-02-22T13:20:40.810Z,5.07
2023-02-22T13:23:16.501Z,5.37
2023-02-22T13:25:50.717Z,5.87
2023-02-22T13:28:25.664Z,5.47
2023-02-22T13:31:14.730Z,5.70
2023-02-22T13:33:58.401Z,5.23
2023-02-22T13:36:51.054Z,5.27
2023-02-22T13:39:34.442Z,6.70
2023-02-22T13:42:23.522Z,6.47
2023-02-22T13:45:29.497Z,5.07
2023-02-22T13:48:18.100Z,5.13
2023-02-22T13:50:59.382Z,6.20
2023-02-22T13:53:30.025Z,5.57
2023-02-22T13:56:01.644Z,5.07
2023-02-22T13:58:29.578Z,7.00
2023-02-22T14:00:59.653Z,6.67
2023-02-22T14:03:40.717Z,5.73
2023-02-22T14:06:41.549Z,6.33
2023-02-22T14:09:09.753Z,5.53
2023-02-22T14:11:43.938Z,5.90
2023-02-22T14:14:17.709Z,5.20
2023-02-22T14:17:05.890Z,7.40
2023-02-22T14:19:33.776Z,8.03
2023-02-22T14:22:04.377Z,7.03
2023-02-22T14:24:43.892Z,6.30
2023-02-22T14:27:12.832Z,6.37
2023-02-22T14:29:53.625Z,6.53
2023-02-22T14:32:22.271Z,5.97
2023-02-22T14:34:54.069Z,6.40
2023-02-22T14:37:26.269Z,7.90
2023-02-22T14:40:02.196Z,7.43
2023-02-22T14:42:32.889Z,6.23
2023-02-22T14:45:06.677Z,6.57
2023-02-22T14:47:44.067Z,7.70
2023-02-22T14:50:18.792Z,7.67
2023-02-22T14:52:49.873Z,6.40
2023-02-22T14:55:22.656Z,5.83
2023-02-22T14:58:01.634Z,6.00
2023-02-22T15:00:40.342Z,5.50
2023-02-22T15:03:19.431Z,5.07
2023-02-22T15:05:47.249Z,6.43
2023-02-22T15:08:18.343Z,7.60
2023-02-22T15:10:47.829Z,7.17
2023-02-22T15:13:20.092Z,6.73
2023-02-22T15:15:49.841Z,8.30
2023-02-22T15:18:25.406Z,6.80
2023-02-22T15:20:57.750Z,9.13
2023-02-22T15:23:40.202Z,8.07
2023-02-22T15:26:08.085Z,8.07
2023-02-22T15:28:36.587Z,8.30
2023-02-22T15:31:26.990Z,8.03
2023-02-22T15:33:55.398Z,9.77
2023-02-22T15:36:27.785Z,8.07
2023-02-22T15:38:59.722Z,7.53
2023-02-22T15:41:32.410Z,8.17
2023-02-22T15:44:08.072Z,7.53
2023-02-22T15:46:39.772Z,8.23
2023-02-22T15:49:19.216Z,8.03
2023-02-22T15:51:52.090Z,7.83
2023-02-22T15:54:27.596Z,9.50
2023-02-22T15:56:56.788Z,8.57
2023-02-22T15:59:30.440Z,8.03
2023-02-22T16:02:00.682Z,7.30
2023-02-22T16:04:31.808Z,6.23
2023-02-22T16:07:06.892Z,8.00
2023-02-22T16:09:35.864Z,5.83
2023-02-22T16:12:23.688Z,6.17
2023-02-22T16:14:52.374Z,5.70
2023-02-22T16:17:32.045Z,5.80
2023-02-22T16:20:00.381Z,6.13
2023-02-22T16:22:33.682Z,6.13
2023-02-22T16:25:27.201Z,4.33
2023-02-22T16:27:58.048Z,6.90
2023-02-22T16:30:30.077Z,6.07
2023-02-22T16:32:58.759Z,7.77
2023-02-22T16:35:29.569Z,6.47
2023-02-22T16:38:00.285Z,6.00
2023-02-22T16:40:34.455Z,4.27
2023-02-22T16:43:03.699Z,6.07
2023-02-22T16:45:31.311Z,5.30
2023-02-22T16:48:00.461Z,6.50
2023-02-22T16:50:28.048Z,5.90
2023-02-22T16:52:58.559Z,6.43
2023-02-22T16:55:27.093Z,6.77
2023-02-22T16:58:01.267Z,8.00
2023-02-22T17:00:32.176Z,7.30
2023-02-22T17:03:03.795Z,7.13
2023-02-22T17:05:32.441Z,6.83
2023-02-22T17:08:00.042Z,5.83
2023-02-22T17:10:28.952Z,6.87
2023-02-22T17:12:58.864Z,9.80
2023-02-22T17:15:29.062Z,7.57
2023-02-22T17:17:57.641Z,7.83
2023-02-22T17:20:30.050Z,7.07
2023-02-22T17:22:58.939Z,9.27
2023-02-22T17:25:31.000Z,7.67
2023-02-22T17:28:00.284Z,9.63
2023-02-22T17:30:28.151Z,7.20
2023-02-22T17:33:03.654Z,8.93
2023-02-22T17:35:35.056Z,7.73
2023-02-22T17:38:06.382Z,7.50
2023-02-22T17:40:35.771Z,8.53
2023-02-22T17:43:08.331Z,7.73
2023-02-22T17:45:38.903Z,7.83
2023-02-22T17:48:07.191Z,7.60
2023-02-22T17:50:37.937Z,7.03
2023-02-22T17:53:06.595Z,8.17
2023-02-22T17:55:35.574Z,7.50
2023-02-22T17:58:04.847Z,8.27
2023-02-22T18:00:36.344Z,6.47
2023-02-22T18:03:07.828Z,6.57
2023-02-22T18:05:40.750Z,7.57
2023-02-22T18:08:08.933Z,10.37
2023-02-22T18:10:36.674Z,8.60
2023-02-22T18:13:06.180Z,9.10
2023-02-22T18:15:35.526Z,7.40
2023-02-22T18:18:05.163Z,8.93
2023-02-22T18:20:38.419Z,9.37
2023-02-22T18:23:08.536Z,12.20
2023-02-22T18:25:37.609Z,9.23
2023-02-22T18:28:08.474Z,9.03
2023-02-22T18:30:38.252Z,8.40
2023-02-22T18:33:06.955Z,7.97
2023-02-22T18:35:34.910Z,10.63
2023-02-22T18:38:03.028Z,9.37
2023-02-22T18:40:30.950Z,9.70
2023-02-22T18:42:58.497Z,7.47
2023-02-22T18:45:28.091Z,9.23
2023-02-22T18:47:55.831Z,9.73
2023-02-22T18:50:23.420Z,8.70
2023-02-22T18:52:51.282Z,9.03
2023-02-22T18:55:21.034Z,8.60
2023-02-22T18:57:50.640Z,8.53
2023-02-22T19:00:24.544Z,8.20
2023-02-22T19:02:53.716Z,9.37
2023-02-22T19:05:22.498Z,9.33
2023-02-22T19:07:50.352Z,8.50
2023-02-22T19:10:18.811Z,8.13
2023-02-22T19:12:46.436Z,9.00
2023-02-22T19:15:14.205Z,8.13
2023-02-22T19:17:42.809Z,7.87
2023-02-22T19:20:12.610Z,9.53
2023-02-22T19:22:40.208Z,9.77
2023-02-22T19:27:56.699Z,8.50
2023-02-22T19:30:25.934Z,7.53
2023-02-22T19:32:53.718Z,8.67
2023-02-22T19:35:27.089Z,8.83
2023-02-22T19:37:55.862Z,11.03
2023-02-22T19:40:24.163Z,11.57
2023-02-22T19:42:52.180Z,8.87
2023-02-22T19:45:20.306Z,9.13
2023-02-22T19:47:48.710Z,8.47
2023-02-22T19:50:18.836Z,8.20
2023-02-22T19:52:48.211Z,9.47
2023-02-22T19:55:16.335Z,7.70
2023-02-22T19:57:47.023Z,9.70
2023-02-22T20:00:23.972Z,8.67
2023-02-22T20:03:05.465Z,8.00
2023-02-22T20:05:33.860Z,7.20
2023-02-22T20:08:02.758Z,6.50
2023-02-22T20:10:30.801Z,8.27
2023-02-22T20:12:58.416Z,8.27
2023-02-22T20:15:26.031Z,8.17
2023-02-22T20:17:54.913Z,7.77
2023-02-22T20:20:24.631Z,9.30
2023-02-22T20:22:52.224Z,8.37
2023-02-22T20:25:21.615Z,9.07
2023-02-22T20:27:49.844Z,9.53
2023-02-22T20:30:19.432Z,9.57
2023-02-22T20:32:47.191Z,7.27
2023-02-22T20:35:16.412Z,9.07
2023-02-22T20:37:44.003Z,10.20
2023-02-22T20:40:12.020Z,9.17
2023-02-22T20:42:41.470Z,9.80
2023-02-22T20:45:11.916Z,7.93
2023-02-22T20:47:40.141Z,9.83
2023-02-22T20:50:08.772Z,9.53
2023-02-22T20:52:36.342Z,11.03
2023-02-22T20:55:05.032Z,7.90
2023-02-22T20:57:32.699Z,9.17
2023-02-22T21:00:01.635Z,8.73
2023-02-22T21:02:29.193Z,7.63
2023-02-22T21:04:56.846Z,8.30
2023-02-22T21:07:24.511Z,8.70
2023-02-22T21:09:52.493Z,9.43
2023-02-22T21:12:20.084Z,10.13
2023-02-22T21:14:47.839Z,9.87
2023-02-22T21:17:21.463Z,10.13
2023-02-22T21:19:49.354Z,8.30
2023-02-22T21:22:16.935Z,10.27
2023-02-22T21:24:44.511Z,10.30
2023-02-22T21:27:12.381Z,8.87
2023-02-22T21:29:40.645Z,10.30
2023-02-22T21:32:08.717Z,8.97
2023-02-22T21:34:38.215Z,10.73
2023-02-22T21:37:08.137Z,10.03
2023-02-22T21:39:36.460Z,10.23
2023-02-22T21:42:07.394Z,9.23
2023-02-22T21:44:34.996Z,7.83
2023-02-22T21:47:02.877Z,10.70
2023-02-22T21:49:30.476Z,8.83
2023-02-22T21:51:59.673Z,9.90
2023-02-22T21:54:27.896Z,10.03
2023-02-22T21:56:55.493Z,9.33
2023-02-22T21:59:23.822Z,9.57
2023-02-22T22:01:56.246Z,10.33
2023-02-22T22:04:27.463Z,7.80
2023-02-22T22:06:57.655Z,10.50
2023-02-22T22:09:29.107Z,9.30
2023-02-22T22:11:59.155Z,10.10
2023-02-22T22:14:27.303Z,8.90
2023-02-22T22:16:58.741Z,10.87
2023-02-22T22:19:27.165Z,11.20
2023-02-22T22:21:55.032Z,10.77
2023-02-22T22:24:23.520Z,10.90
2023-02-22T22:26:55.043Z,10.53
2023-02-22T22:29:23.654Z,10.33
2023-02-22T22:31:51.799Z,9.07
2023-02-22T22:34:20.433Z,10.93
2023-02-22T22:36:48.190Z,9.10
2023-02-22T22:39:16.075Z,9.57
2023-02-22T22:41:45.552Z,10.50
2023-02-22T22:44:16.291Z,10.10
2023-02-22T22:46:49.430Z,9.30
2023-02-22T22:49:17.431Z,8.93
2023-02-22T22:51:47.314Z,10.20
2023-02-22T22:54:15.233Z,9.90
2023-02-22T22:56:42.845Z,9.40
2023-02-22T22:59:13.127Z,10.27
2023-02-22T23:01:44.651Z,9.63
2023-02-22T23:04:16.126Z,8.67
2023-02-22T23:06:45.267Z,11.23
2023-02-22T23:09:18.374Z,11.97
2023-02-22T23:11:47.915Z,8.87
2023-02-22T23:14:19.355Z,8.83
2023-02-22T23:16:50.033Z,10.37
2023-02-22T23:19:19.200Z,9.57
2023-02-22T23:21:48.106Z,9.03
2023-02-22T23:24:17.435Z,10.67
2023-02-22T23:26:48.544Z,10.03
2023-02-22T23:29:17.160Z,10.17
2023-02-22T23:31:48.013Z,10.83
2023-02-22T23:34:18.650Z,11.43
2023-02-22T23:36:46.784Z,10.90
2023-02-22T23:39:17.268Z,10.43
2023-02-22T23:41:45.121Z,11.30
2023-02-22T23:44:17.353Z,10.33
2023-02-22T23:46:48.588Z,9.07
2023-02-22T23:49:20.276Z,9.47
2023-02-22T23:51:49.200Z,11.57
2023-02-22T23:54:20.172Z,11.20
2023-02-22T23:56:56.315Z,13.60
2023-02-22T23:59:24.698Z,11.43
